sensor_id;sensor_type;location;lat;lon;timestamp;pressure;altitude;pressure_sealevel;temperature;humidity
550;BME280;20066;48.764;9.176;2023-05-15T00:00:30;97803.59;;;14.04;65.23
550;BME280;20066;48.764;9.176;2023-05-15T00:02:58;97801.34;;;13.99;64.82
550;BME280;20066;48.764;9.176;2023-05-15T00:05:27;97799.06;;;13.97;65.39
550;BME280;20066;48.764;9.176;2023-05-15T00:07:55;97798.88;;;14.08;64.60
550;BME280;20066;48.764;9.176;2023-05-15T00:10:23;97794.00;;;13.56;67.24
550;BME280;20066;48.764;9.176;2023-05-15T00:12:50;97792.69;;;13.87;65.35
550;BME280;20066;48.764;9.176;2023-05-15T00:15:18;97792.50;;;14.18;64.25
550;BME280;20066;48.764;9.176;2023-05-15T00:17:46;97786.38;;;13.94;65.44
550;BME280;20066;48.764;9.176;2023-05-15T00:20:13;97788.22;;;13.58;67.08
550;BME280;20066;48.764;9.176;2023-05-15T00:22:43;97792.13;;;13.53;65.97
550;BME280;20066;48.764;9.176;2023-05-15T00:25:11;97783.50;;;13.15;68.19
550;BME280;20066;48.764;9.176;2023-05-15T00:27:38;97777.81;;;13.56;67.14
550;BME280;20066;48.764;9.176;2023-05-15T00:30:07;97782.84;;;13.54;66.50
550;BME280;20066;48.764;9.176;2023-05-15T00:32:35;97781.25;;;14.00;64.86
550;BME280;20066;48.764;9.176;2023-05-15T00:35:03;97784.66;;;13.61;66.58
550;BME280;20066;48.764;9.176;2023-05-15T00:37:31;97780.56;;;13.29;67.28
550;BME280;20066;48.764;9.176;2023-05-15T00:40:00;97780.56;;;13.29;66.60
550;BME280;20066;48.764;9.176;2023-05-15T00:42:28;97778.97;;;13.08;68.29
550;BME280;20066;48.764;9.176;2023-05-15T00:44:57;97768.75;;;13.66;66.86
550;BME280;20066;48.764;9.176;2023-05-15T00:47:27;97767.84;;;13.73;65.88
550;BME280;20066;48.764;9.176;2023-05-15T00:49:56;97771.81;;;13.88;65.00
550;BME280;20066;48.764;9.176;2023-05-15T00:52:24;97771.00;;;14.31;64.02
550;BME280;20066;48.764;9.176;2023-05-15T00:54:53;97761.44;;;14.26;63.49
550;BME280;20066;48.764;9.176;2023-05-15T00:57:22;97768.53;;;14.20;64.21
550;BME280;20066;48.764;9.176;2023-05-15T00:59:53;97775.22;;;14.51;62.95
550;BME280;20066;48.764;9.176;2023-05-15T01:02:23;97782.25;;;14.65;62.00
550;BME280;20066;48.764;9.176;2023-05-15T01:04:51;97775.81;;;14.59;61.87
550;BME280;20066;48.764;9.176;2023-05-15T01:07:19;97779.03;;;14.34;63.75
550;BME280;20066;48.764;9.176;2023-05-15T01:09:48;97770.38;;;14.23;64.11
550;BME280;20066;48.764;9.176;2023-05-15T01:12:17;97777.47;;;14.37;62.82
550;BME280;20066;48.764;9.176;2023-05-15T01:14:48;97773.78;;;14.07;63.86
550;BME280;20066;48.764;9.176;2023-05-15T01:17:19;97771.59;;;14.38;63.33
550;BME280;20066;48.764;9.176;2023-05-15T01:19:49;97775.56;;;14.70;61.97
550;BME280;20066;48.764;9.176;2023-05-15T01:22:33;97779.50;;;14.49;62.22
550;BME280;20066;48.764;9.176;2023-05-15T01:28:25;97777.16;;;14.31;63.19
550;BME280;20066;48.764;9.176;2023-05-15T01:31:01;97772.91;;;14.14;63.81
550;BME280;20066;48.764;9.176;2023-05-15T01:33:33;97775.47;;;13.78;65.57
550;BME280;20066;48.764;9.176;2023-05-15T01:36:07;97775.34;;;13.85;64.74
550;BME280;20066;48.764;9.176;2023-05-15T01:38:41;97777.72;;;13.83;65.04
550;BME280;20066;48.764;9.176;2023-05-15T01:41:15;97772.81;;;13.31;67.01
550;BME280;20066;48.764;9.176;2023-05-15T01:43:47;97776.38;;;13.71;64.74
550;BME280;20066;48.764;9.176;2023-05-15T01:46:22;97777.28;;;13.84;65.63
550;BME280;20066;48.764;9.176;2023-05-15T01:48:51;97777.16;;;13.91;63.93
550;BME280;20066;48.764;9.176;2023-05-15T01:51:20;97770.84;;;13.78;65.68
550;BME280;20066;48.764;9.176;2023-05-15T01:53:49;97770.00;;;14.01;64.40
550;BME280;20066;48.764;9.176;2023-05-15T01:56:19;97774.88;;;14.29;62.91
550;BME280;20066;48.764;9.176;2023-05-15T01:58:49;97776.50;;;13.84;63.40
550;BME280;20066;48.764;9.176;2023-05-15T02:01:18;97781.59;;;14.02;64.39
550;BME280;20066;48.764;9.176;2023-05-15T02:03:47;97784.13;;;14.12;63.95
550;BME280;20066;48.764;9.176;2023-05-15T02:06:15;97782.94;;;14.13;62.77
550;BME280;20066;48.764;9.176;2023-05-15T02:08:45;97783.09;;;13.63;64.34
550;BME280;20066;48.764;9.176;2023-05-15T02:11:14;97776.25;;;13.78;65.61
550;BME280;20066;48.764;9.176;2023-05-15T02:13:41;97780.16;;;14.17;64.12
550;BME280;20066;48.764;9.176;2023-05-15T02:16:11;97780.34;;;14.46;62.58
550;BME280;20066;48.764;9.176;2023-05-15T02:18:39;97785.94;;;14.19;63.11
550;BME280;20066;48.764;9.176;2023-05-15T02:21:07;97789.13;;;13.01;67.93
550;BME280;20066;48.764;9.176;2023-05-15T02:23:35;97783.22;;;13.56;65.09
550;BME280;20066;48.764;9.176;2023-05-15T02:26:11;97780.38;;;13.63;65.04
550;BME280;20066;48.764;9.176;2023-05-15T02:28:46;97779.16;;;12.98;67.83
550;BME280;20066;48.764;9.176;2023-05-15T02:31:23;97765.06;;;13.33;67.81
550;BME280;20066;48.764;9.176;2023-05-15T02:34:00;97774.78;;;13.74;65.99
550;BME280;20066;48.764;9.176;2023-05-15T02:36:32;97781.88;;;13.87;64.95
550;BME280;20066;48.764;9.176;2023-05-15T02:39:02;97782.53;;;13.52;66.90
550;BME280;20066;48.764;9.176;2023-05-15T02:41:31;97782.81;;;13.77;65.53
550;BME280;20066;48.764;9.176;2023-05-15T02:44:00;97791.91;;;13.21;68.32
550;BME280;20066;48.764;9.176;2023-05-15T02:46:30;97780.41;;;13.40;66.33
550;BME280;20066;48.764;9.176;2023-05-15T02:48:58;97783.97;;;13.57;66.64
550;BME280;20066;48.764;9.176;2023-05-15T02:51:27;97780.91;;;13.55;65.81
550;BME280;20066;48.764;9.176;2023-05-15T02:53:55;97792.34;;;13.62;65.17
550;BME280;20066;48.764;9.176;2023-05-15T02:56:26;97786.03;;;13.26;67.58
550;BME280;20066;48.764;9.176;2023-05-15T02:58:54;97777.63;;;13.86;64.74
550;BME280;20066;48.764;9.176;2023-05-15T03:01:22;97777.34;;;14.01;65.50
550;BME280;20066;48.764;9.176;2023-05-15T03:03:51;97777.03;;;14.18;64.04
550;BME280;20066;48.764;9.176;2023-05-15T03:06:19;97779.47;;;14.33;63.74
550;BME280;20066;48.764;9.176;2023-05-15T03:08:46;97777.22;;;14.47;63.07
550;BME280;20066;48.764;9.176;2023-05-15T03:11:14;97773.66;;;13.51;65.27
550;BME280;20066;48.764;9.176;2023-05-15T03:13:44;97774.59;;;13.18;66.72
550;BME280;20066;48.764;9.176;2023-05-15T03:16:12;97766.19;;;12.59;69.79
550;BME280;20066;48.764;9.176;2023-05-15T03:18:39;97766.47;;;13.41;67.94
550;BME280;20066;48.764;9.176;2023-05-15T03:21:09;97775.06;;;13.60;67.45
550;BME280;20066;48.764;9.176;2023-05-15T03:23:36;97773.41;;;13.85;66.96
550;BME280;20066;48.764;9.176;2023-05-15T03:26:04;97770.28;;;13.87;64.66
550;BME280;20066;48.764;9.176;2023-05-15T03:28:32;97772.25;;;14.26;63.54
550;BME280;20066;48.764;9.176;2023-05-15T03:31:00;97770.47;;;14.19;63.72
550;BME280;20066;48.764;9.176;2023-05-15T03:33:31;97771.44;;;14.29;63.18
550;BME280;20066;48.764;9.176;2023-05-15T03:35:58;97769.91;;;14.28;63.67
550;BME280;20066;48.764;9.176;2023-05-15T03:38:28;97772.00;;;13.77;65.13
550;BME280;20066;48.764;9.176;2023-05-15T03:40:56;97775.19;;;13.92;66.10
550;BME280;20066;48.764;9.176;2023-05-15T03:43:24;97772.69;;;13.62;66.37
550;BME280;20066;48.764;9.176;2023-05-15T03:45:52;97763.72;;;14.08;65.34
550;BME280;20066;48.764;9.176;2023-05-15T03:48:19;97768.13;;;13.12;68.74
550;BME280;20066;48.764;9.176;2023-05-15T03:50:47;97766.19;;;13.36;67.84
550;BME280;20066;48.764;9.176;2023-05-15T03:53:15;97765.28;;;13.66;66.64
550;BME280;20066;48.764;9.176;2023-05-15T03:55:44;97767.06;;;14.15;64.79
550;BME280;20066;48.764;9.176;2023-05-15T03:58:12;97773.44;;;13.62;65.64
550;BME280;20066;48.764;9.176;2023-05-15T04:00:39;97771.19;;;14.00;64.54
550;BME280;20066;48.764;9.176;2023-05-15T04:03:07;97764.34;;;14.15;65.31
550;BME280;20066;48.764;9.176;2023-05-15T04:05:35;97767.47;;;14.34;64.15
550;BME280;20066;48.764;9.176;2023-05-15T04:08:03;97772.94;;;13.47;67.95
550;BME280;20066;48.764;9.176;2023-05-15T04:10:31;97769.44;;;14.13;65.43
550;BME280;20066;48.764;9.176;2023-05-15T04:13:00;97775.91;;;13.96;66.50
550;BME280;20066;48.764;9.176;2023-05-15T04:15:28;97767.66;;;14.23;65.82
550;BME280;20066;48.764;9.176;2023-05-15T04:17:56;97778.78;;;14.64;63.77
550;BME280;20066;48.764;9.176;2023-05-15T04:20:24;97778.63;;;14.36;64.33
550;BME280;20066;48.764;9.176;2023-05-15T04:22:52;97783.66;;;14.53;64.33
550;BME280;20066;48.764;9.176;2023-05-15T04:25:19;97776.13;;;14.61;62.94
550;BME280;20066;48.764;9.176;2023-05-15T04:27:48;97770.47;;;14.19;63.51
550;BME280;20066;48.764;9.176;2023-05-15T04:30:17;97766.69;;;13.94;65.88
550;BME280;20066;48.764;9.176;2023-05-15T04:32:44;97769.75;;;14.71;63.71
550;BME280;20066;48.764;9.176;2023-05-15T04:35:12;97778.06;;;14.80;63.89
550;BME280;20066;48.764;9.176;2023-05-15T04:37:41;97773.59;;;15.06;63.20
550;BME280;20066;48.764;9.176;2023-05-15T04:40:11;97772.16;;;15.34;62.15
550;BME280;20066;48.764;9.176;2023-05-15T04:42:40;97774.97;;;14.62;62.96
550;BME280;20066;48.764;9.176;2023-05-15T04:45:08;97771.56;;;14.22;65.36
550;BME280;20066;48.764;9.176;2023-05-15T04:47:38;97776.78;;;15.01;63.87
550;BME280;20066;48.764;9.176;2023-05-15T04:50:06;97776.34;;;15.22;61.95
550;BME280;20066;48.764;9.176;2023-05-15T04:52:34;97769.22;;;15.28;62.62
550;BME280;20066;48.764;9.176;2023-05-15T04:55:03;97777.25;;;15.77;61.30
550;BME280;20066;48.764;9.176;2023-05-15T04:57:31;97785.94;;;14.91;62.97
550;BME280;20066;48.764;9.176;2023-05-15T04:59:58;97781.38;;;15.53;61.64
550;BME280;20066;48.764;9.176;2023-05-15T05:02:26;97781.19;;;15.60;60.99
550;BME280;20066;48.764;9.176;2023-05-15T05:04:56;97785.16;;;15.55;61.87
550;BME280;20066;48.764;9.176;2023-05-15T05:07:23;97782.41;;;15.42;61.39
550;BME280;20066;48.764;9.176;2023-05-15T05:09:51;97774.16;;;14.81;63.34
550;BME280;20066;48.764;9.176;2023-05-15T05:12:19;97786.72;;;14.55;64.31
550;BME280;20066;48.764;9.176;2023-05-15T05:14:47;97787.56;;;15.53;62.34
550;BME280;20066;48.764;9.176;2023-05-15T05:17:14;97787.22;;;15.51;61.76
550;BME280;20066;48.764;9.176;2023-05-15T05:19:42;97793.78;;;16.11;60.21
550;BME280;20066;48.764;9.176;2023-05-15T05:22:11;97794.63;;;15.79;60.20
550;BME280;20066;48.764;9.176;2023-05-15T05:24:39;97792.63;;;16.25;59.82
550;BME280;20066;48.764;9.176;2023-05-15T05:27:07;97795.66;;;16.14;58.95
550;BME280;20066;48.764;9.176;2023-05-15T05:29:35;97798.09;;;15.80;60.16
550;BME280;20066;48.764;9.176;2023-05-15T05:32:04;97799.09;;;15.41;61.17
550;BME280;20066;48.764;9.176;2023-05-15T05:34:32;97799.25;;;15.95;60.12
550;BME280;20066;48.764;9.176;2023-05-15T05:36:59;97797.09;;;14.93;63.26
550;BME280;20066;48.764;9.176;2023-05-15T05:39:29;97801.25;;;14.81;63.45
550;BME280;20066;48.764;9.176;2023-05-15T05:41:56;97792.72;;;15.93;60.91
550;BME280;20066;48.764;9.176;2023-05-15T05:44:24;97799.00;;;15.61;61.01
550;BME280;20066;48.764;9.176;2023-05-15T05:46:53;97797.78;;;16.48;58.81
550;BME280;20066;48.764;9.176;2023-05-15T05:49:21;97800.63;;;16.16;59.51
550;BME280;20066;48.764;9.176;2023-05-15T05:51:49;97792.25;;;16.65;58.07
550;BME280;20066;48.764;9.176;2023-05-15T05:54:16;97797.25;;;16.53;58.13
550;BME280;20066;48.764;9.176;2023-05-15T05:56:46;97808.19;;;16.08;59.71
550;BME280;20066;48.764;9.176;2023-05-15T05:59:14;97802.84;;;16.34;59.43
550;BME280;20066;48.764;9.176;2023-05-15T06:01:41;97802.28;;;15.97;60.30
550;BME280;20066;48.764;9.176;2023-05-15T06:04:09;97799.66;;;15.65;60.94
550;BME280;20066;48.764;9.176;2023-05-15T06:06:37;97801.03;;;16.31;59.24
550;BME280;20066;48.764;9.176;2023-05-15T06:09:06;97792.00;;;16.46;58.87
550;BME280;20066;48.764;9.176;2023-05-15T06:11:34;97792.94;;;16.69;57.47
550;BME280;20066;48.764;9.176;2023-05-15T06:14:03;97797.06;;;15.90;59.79
550;BME280;20066;48.764;9.176;2023-05-15T06:16:33;97800.72;;;15.22;62.51
550;BME280;20066;48.764;9.176;2023-05-15T06:19:01;97801.72;;;15.28;62.84
550;BME280;20066;48.764;9.176;2023-05-15T06:21:29;97799.00;;;16.73;58.52
550;BME280;20066;48.764;9.176;2023-05-15T06:23:57;97791.84;;;17.17;56.69
550;BME280;20066;48.764;9.176;2023-05-15T06:26:25;97800.22;;;17.10;55.98
550;BME280;20066;48.764;9.176;2023-05-15T06:28:53;97790.00;;;15.48;62.40
550;BME280;20066;48.764;9.176;2023-05-15T06:31:22;97794.38;;;16.03;59.93
550;BME280;20066;48.764;9.176;2023-05-15T06:33:50;97800.84;;;17.01;57.68
550;BME280;20066;48.764;9.176;2023-05-15T06:36:17;97791.91;;;16.50;58.02
550;BME280;20066;48.764;9.176;2023-05-15T06:38:45;97799.13;;;16.94;57.19
550;BME280;20066;48.764;9.176;2023-05-15T06:41:13;97798.13;;;17.39;56.97
550;BME280;20066;48.764;9.176;2023-05-15T06:43:41;97804.09;;;15.88;61.17
550;BME280;20066;48.764;9.176;2023-05-15T06:46:08;97808.13;;;16.66;58.15
550;BME280;20066;48.764;9.176;2023-05-15T06:48:38;97797.91;;;17.46;56.26
550;BME280;20066;48.764;9.176;2023-05-15T06:51:05;97806.31;;;16.22;59.04
550;BME280;20066;48.764;9.176;2023-05-15T06:53:33;97797.16;;;16.82;58.85
550;BME280;20066;48.764;9.176;2023-05-15T06:56:01;97802.25;;;16.55;57.96
550;BME280;20066;48.764;9.176;2023-05-15T06:58:28;97798.47;;;16.78;57.24
550;BME280;20066;48.764;9.176;2023-05-15T07:00:56;97804.88;;;16.96;56.26
550;BME280;20066;48.764;9.176;2023-05-15T07:03:26;97802.03;;;16.49;57.81
550;BME280;20066;48.764;9.176;2023-05-15T07:05:55;97798.16;;;16.88;57.32
550;BME280;20066;48.764;9.176;2023-05-15T07:08:23;97793.25;;;16.96;56.51
550;BME280;20066;48.764;9.176;2023-05-15T07:10:51;97800.75;;;16.67;56.94
550;BME280;20066;48.764;9.176;2023-05-15T07:13:19;97787.25;;;16.63;57.23
550;BME280;20066;48.764;9.176;2023-05-15T07:15:47;97795.34;;;18.21;54.30
550;BME280;20066;48.764;9.176;2023-05-15T07:18:15;97799.47;;;17.09;55.46
550;BME280;20066;48.764;9.176;2023-05-15T07:20:43;97806.13;;;17.55;54.74
550;BME280;20066;48.764;9.176;2023-05-15T07:23:12;97799.66;;;17.75;54.09
550;BME280;20066;48.764;9.176;2023-05-15T07:25:40;97802.84;;;19.31;50.42
550;BME280;20066;48.764;9.176;2023-05-15T07:28:08;97803.72;;;19.77;48.22
550;BME280;20066;48.764;9.176;2023-05-15T07:30:36;97796.47;;;21.04;45.78
550;BME280;20066;48.764;9.176;2023-05-15T07:33:04;97804.75;;;22.14;43.62
550;BME280;20066;48.764;9.176;2023-05-15T07:35:32;97809.34;;;19.24;47.66
550;BME280;20066;48.764;9.176;2023-05-15T07:38:00;97802.34;;;17.40;53.03
550;BME280;20066;48.764;9.176;2023-05-15T07:40:29;97806.81;;;19.39;49.81
550;BME280;20066;48.764;9.176;2023-05-15T07:42:58;97797.31;;;20.86;46.92
550;BME280;20066;48.764;9.176;2023-05-15T07:45:26;97810.09;;;24.27;39.24
550;BME280;20066;48.764;9.176;2023-05-15T07:47:54;97800.78;;;22.00;40.74
550;BME280;20066;48.764;9.176;2023-05-15T07:50:24;97806.91;;;24.08;39.02
550;BME280;20066;48.764;9.176;2023-05-15T07:52:52;97811.31;;;25.09;35.70
550;BME280;20066;48.764;9.176;2023-05-15T07:55:20;97806.69;;;18.72;48.08
550;BME280;20066;48.764;9.176;2023-05-15T07:57:49;97801.84;;;20.47;46.25
550;BME280;20066;48.764;9.176;2023-05-15T08:00:20;97799.09;;;21.31;43.40
550;BME280;20066;48.764;9.176;2023-05-15T08:02:48;97803.50;;;24.45;37.80
550;BME280;20066;48.764;9.176;2023-05-15T08:05:16;97800.63;;;22.33;40.47
550;BME280;20066;48.764;9.176;2023-05-15T08:07:44;97799.38;;;21.81;41.95
550;BME280;20066;48.764;9.176;2023-05-15T08:10:12;97807.69;;;22.98;40.29
550;BME280;20066;48.764;9.176;2023-05-15T08:12:39;97795.75;;;21.99;40.80
550;BME280;20066;48.764;9.176;2023-05-15T08:15:13;97803.19;;;23.91;36.67
550;BME280;20066;48.764;9.176;2023-05-15T08:17:41;97805.41;;;21.46;42.08
550;BME280;20066;48.764;9.176;2023-05-15T08:20:09;97802.00;;;20.95;43.32
550;BME280;20066;48.764;9.176;2023-05-15T08:22:37;97797.19;;;23.32;40.75
550;BME280;20066;48.764;9.176;2023-05-15T08:25:05;97799.88;;;22.62;40.49
550;BME280;20066;48.764;9.176;2023-05-15T08:27:34;97797.19;;;22.97;39.87
550;BME280;20066;48.764;9.176;2023-05-15T08:30:02;97801.84;;;24.07;38.66
550;BME280;20066;48.764;9.176;2023-05-15T08:32:31;97803.03;;;25.09;37.02
550;BME280;20066;48.764;9.176;2023-05-15T08:34:59;97789.81;;;23.78;38.55
550;BME280;20066;48.764;9.176;2023-05-15T08:37:27;97793.31;;;23.79;36.68
550;BME280;20066;48.764;9.176;2023-05-15T08:39:55;97793.03;;;24.75;36.53
550;BME280;20066;48.764;9.176;2023-05-15T08:42:27;97796.88;;;21.44;40.85
550;BME280;20066;48.764;9.176;2023-05-15T08:45:00;97796.13;;;23.85;35.78
550;BME280;20066;48.764;9.176;2023-05-15T08:47:27;97793.66;;;20.89;41.34
550;BME280;20066;48.764;9.176;2023-05-15T08:50:02;97782.31;;;23.38;38.31
550;BME280;20066;48.764;9.176;2023-05-15T08:52:32;97787.63;;;24.86;36.74
550;BME280;20066;48.764;9.176;2023-05-15T08:55:01;97787.47;;;21.84;40.76
550;BME280;20066;48.764;9.176;2023-05-15T08:57:31;97767.81;;;21.71;41.19
550;BME280;20066;48.764;9.176;2023-05-15T09:00:00;97779.84;;;22.41;41.26
550;BME280;20066;48.764;9.176;2023-05-15T09:02:33;97782.88;;;24.29;38.41
550;BME280;20066;48.764;9.176;2023-05-15T09:05:02;97772.84;;;23.80;38.45
550;BME280;20066;48.764;9.176;2023-05-15T09:07:31;97767.72;;;22.04;40.93
550;BME280;20066;48.764;9.176;2023-05-15T09:10:01;97767.09;;;21.85;40.48
550;BME280;20066;48.764;9.176;2023-05-15T09:12:32;97772.66;;;21.90;39.12
550;BME280;20066;48.764;9.176;2023-05-15T09:15:11;97767.19;;;24.09;35.65
550;BME280;20066;48.764;9.176;2023-05-15T09:17:40;97773.28;;;25.61;33.54
550;BME280;20066;48.764;9.176;2023-05-15T09:20:24;97768.75;;;22.65;38.43
550;BME280;20066;48.764;9.176;2023-05-15T09:22:53;97767.78;;;23.53;38.01
550;BME280;20066;48.764;9.176;2023-05-15T09:25:37;97766.22;;;22.03;41.07
550;BME280;20066;48.764;9.176;2023-05-15T09:28:07;97757.28;;;21.93;41.80
550;BME280;20066;48.764;9.176;2023-05-15T09:30:36;97753.97;;;21.50;42.66
550;BME280;20066;48.764;9.176;2023-05-15T09:33:04;97766.56;;;20.58;45.46
550;BME280;20066;48.764;9.176;2023-05-15T09:35:35;97750.50;;;20.93;44.04
550;BME280;20066;48.764;9.176;2023-05-15T09:38:07;97754.94;;;20.39;44.41
550;BME280;20066;48.764;9.176;2023-05-15T09:40:37;97758.13;;;18.79;48.71
550;BME280;20066;48.764;9.176;2023-05-15T09:43:05;97764.16;;;20.42;44.39
550;BME280;20066;48.764;9.176;2023-05-15T09:45:33;97756.34;;;20.77;43.63
550;BME280;20066;48.764;9.176;2023-05-15T09:48:03;97758.94;;;19.47;44.96
550;BME280;20066;48.764;9.176;2023-05-15T09:50:34;97752.41;;;20.18;43.55
550;BME280;20066;48.764;9.176;2023-05-15T09:53:04;97752.63;;;21.46;41.42
550;BME280;20066;48.764;9.176;2023-05-15T09:55:33;97754.78;;;21.42;41.32
550;BME280;20066;48.764;9.176;2023-05-15T09:58:06;97753.81;;;22.81;40.57
550;BME280;20066;48.764;9.176;2023-05-15T10:00:34;97748.78;;;21.91;40.60
550;BME280;20066;48.764;9.176;2023-05-15T10:03:16;97745.03;;;22.62;39.64
550;BME280;20066;48.764;9.176;2023-05-15T10:05:46;97732.88;;;21.18;42.06
550;BME280;20066;48.764;9.176;2023-05-15T10:08:15;97731.50;;;20.90;41.38
550;BME280;20066;48.764;9.176;2023-05-15T10:10:52;97736.34;;;22.19;39.90
550;BME280;20066;48.764;9.176;2023-05-15T10:13:21;97734.25;;;23.89;36.87
550;BME280;20066;48.764;9.176;2023-05-15T10:15:50;97735.50;;;21.99;40.62
550;BME280;20066;48.764;9.176;2023-05-15T10:18:20;97733.13;;;22.06;39.86
550;BME280;20066;48.764;9.176;2023-05-15T10:20:53;97727.66;;;22.36;38.71
550;BME280;20066;48.764;9.176;2023-05-15T10:23:23;97732.66;;;22.08;40.44
550;BME280;20066;48.764;9.176;2023-05-15T10:25:56;97730.22;;;22.10;38.62
550;BME280;20066;48.764;9.176;2023-05-15T10:28:28;97724.53;;;22.28;39.92
550;BME280;20066;48.764;9.176;2023-05-15T10:30:59;97726.28;;;23.71;35.58
550;BME280;20066;48.764;9.176;2023-05-15T10:33:28;97718.94;;;24.34;34.30
550;BME280;20066;48.764;9.176;2023-05-15T10:35:58;97704.03;;;22.23;37.82
550;BME280;20066;48.764;9.176;2023-05-15T10:38:26;97698.97;;;21.63;39.05
550;BME280;20066;48.764;9.176;2023-05-15T10:40:58;97702.19;;;21.62;39.65
550;BME280;20066;48.764;9.176;2023-05-15T10:43:42;97703.50;;;21.81;38.96
550;BME280;20066;48.764;9.176;2023-05-15T10:46:12;97704.16;;;23.80;35.85
550;BME280;20066;48.764;9.176;2023-05-15T10:48:41;97695.84;;;24.21;35.18
550;BME280;20066;48.764;9.176;2023-05-15T10:51:15;97700.84;;;23.96;34.12
550;BME280;20066;48.764;9.176;2023-05-15T10:53:43;97694.84;;;24.24;33.57
550;BME280;20066;48.764;9.176;2023-05-15T10:56:13;97693.91;;;24.32;31.70
550;BME280;20066;48.764;9.176;2023-05-15T10:58:46;97690.34;;;23.49;31.88
550;BME280;20066;48.764;9.176;2023-05-15T11:01:35;97689.44;;;24.72;31.93
550;BME280;20066;48.764;9.176;2023-05-15T11:04:08;97693.50;;;27.47;27.93
550;BME280;20066;48.764;9.176;2023-05-15T11:06:38;97686.47;;;26.16;30.58
550;BME280;20066;48.764;9.176;2023-05-15T11:09:32;97686.56;;;24.18;34.64
550;BME280;20066;48.764;9.176;2023-05-15T11:12:01;97681.88;;;23.32;36.33
550;BME280;20066;48.764;9.176;2023-05-15T11:14:30;97687.41;;;25.85;31.28
550;BME280;20066;48.764;9.176;2023-05-15T11:16:59;97687.72;;;25.98;29.32
550;BME280;20066;48.764;9.176;2023-05-15T11:19:55;97683.28;;;27.31;27.46
550;BME280;20066;48.764;9.176;2023-05-15T11:22:32;97677.16;;;25.75;30.09
550;BME280;20066;48.764;9.176;2023-05-15T11:25:04;97671.41;;;29.45;26.34
550;BME280;20066;48.764;9.176;2023-05-15T11:27:38;97673.16;;;25.05;30.13
550;BME280;20066;48.764;9.176;2023-05-15T11:30:09;97671.19;;;24.37;31.38
550;BME280;20066;48.764;9.176;2023-05-15T11:32:58;97672.63;;;23.75;32.60
550;BME280;20066;48.764;9.176;2023-05-15T11:35:27;97667.50;;;30.69;24.34
550;BME280;20066;48.764;9.176;2023-05-15T11:37:58;97654.09;;;28.96;23.92
550;BME280;20066;48.764;9.176;2023-05-15T11:40:27;97645.84;;;25.02;30.29
550;BME280;20066;48.764;9.176;2023-05-15T11:43:01;97648.72;;;23.56;33.29
550;BME280;20066;48.764;9.176;2023-05-15T11:45:30;97646.59;;;25.02;30.63
550;BME280;20066;48.764;9.176;2023-05-15T11:48:00;97651.13;;;25.05;30.08
550;BME280;20066;48.764;9.176;2023-05-15T11:50:29;97653.03;;;23.62;31.18
550;BME280;20066;48.764;9.176;2023-05-15T11:53:02;97641.09;;;26.17;28.55
550;BME280;20066;48.764;9.176;2023-05-15T11:55:32;97645.81;;;24.53;30.54
550;BME280;20066;48.764;9.176;2023-05-15T11:58:00;97651.56;;;24.98;30.85
550;BME280;20066;48.764;9.176;2023-05-15T12:00:29;97652.88;;;26.12;28.48
550;BME280;20066;48.764;9.176;2023-05-15T12:02:57;97659.69;;;28.12;26.61
550;BME280;20066;48.764;9.176;2023-05-15T12:05:25;97657.03;;;27.95;26.72
550;BME280;20066;48.764;9.176;2023-05-15T12:07:53;97649.59;;;26.30;28.88
550;BME280;20066;48.764;9.176;2023-05-15T12:10:23;97652.91;;;21.76;36.20
550;BME280;20066;48.764;9.176;2023-05-15T12:12:51;97655.00;;;24.45;31.69
550;BME280;20066;48.764;9.176;2023-05-15T12:15:18;97649.28;;;24.11;31.24
550;BME280;20066;48.764;9.176;2023-05-15T12:17:46;97653.31;;;25.72;28.44
550;BME280;20066;48.764;9.176;2023-05-15T12:20:16;97646.00;;;24.44;29.76
550;BME280;20066;48.764;9.176;2023-05-15T12:22:44;97640.59;;;25.04;29.24
550;BME280;20066;48.764;9.176;2023-05-15T12:25:14;97642.41;;;24.27;30.79
550;BME280;20066;48.764;9.176;2023-05-15T12:27:44;97636.88;;;21.99;35.87
550;BME280;20066;48.764;9.176;2023-05-15T12:30:12;97636.25;;;21.50;37.63
550;BME280;20066;48.764;9.176;2023-05-15T12:32:41;97638.84;;;23.43;33.78
550;BME280;20066;48.764;9.176;2023-05-15T12:35:09;97639.13;;;23.97;33.41
550;BME280;20066;48.764;9.176;2023-05-15T12:37:38;97640.00;;;23.37;32.04
550;BME280;20066;48.764;9.176;2023-05-15T12:40:07;97641.16;;;23.71;31.21
550;BME280;20066;48.764;9.176;2023-05-15T12:42:39;97644.22;;;24.78;29.52
550;BME280;20066;48.764;9.176;2023-05-15T12:45:13;97638.00;;;26.82;26.93
550;BME280;20066;48.764;9.176;2023-05-15T12:47:42;97639.69;;;29.22;24.11
550;BME280;20066;48.764;9.176;2023-05-15T12:50:15;97628.09;;;27.09;26.30
550;BME280;20066;48.764;9.176;2023-05-15T12:52:49;97635.03;;;24.98;29.70
550;BME280;20066;48.764;9.176;2023-05-15T12:55:21;97640.59;;;23.41;32.11
550;BME280;20066;48.764;9.176;2023-05-15T12:57:49;97646.84;;;23.01;34.55
550;BME280;20066;48.764;9.176;2023-05-15T13:00:20;97649.25;;;22.73;33.66
550;BME280;20066;48.764;9.176;2023-05-15T13:02:49;97653.25;;;20.26;39.52
550;BME280;20066;48.764;9.176;2023-05-15T13:05:17;97648.72;;;21.51;37.76
550;BME280;20066;48.764;9.176;2023-05-15T13:07:46;97651.41;;;20.98;38.88
550;BME280;20066;48.764;9.176;2023-05-15T13:10:14;97641.97;;;20.99;38.67
550;BME280;20066;48.764;9.176;2023-05-15T13:12:44;97642.28;;;20.02;41.24
550;BME280;20066;48.764;9.176;2023-05-15T13:15:25;97642.13;;;21.20;39.37
550;BME280;20066;48.764;9.176;2023-05-15T13:17:54;97651.09;;;20.96;39.39
550;BME280;20066;48.764;9.176;2023-05-15T13:20:26;97650.00;;;22.94;35.77
550;BME280;20066;48.764;9.176;2023-05-15T13:22:54;97639.13;;;22.64;35.36
550;BME280;20066;48.764;9.176;2023-05-15T13:25:22;97632.50;;;21.48;37.63
550;BME280;20066;48.764;9.176;2023-05-15T13:27:50;97636.16;;;20.83;38.34
550;BME280;20066;48.764;9.176;2023-05-15T13:30:18;97629.56;;;21.81;36.94
550;BME280;20066;48.764;9.176;2023-05-15T13:32:47;97628.34;;;21.67;37.17
550;BME280;20066;48.764;9.176;2023-05-15T13:35:15;97625.31;;;21.50;36.92
550;BME280;20066;48.764;9.176;2023-05-15T13:37:43;97630.19;;;20.27;39.52